BOS weather

General Edward Lawrence Logan International Airport
Boston, Massachusetts, United States

Public forecast

Using degrees Fahrenheit for public forecast. Weather courtesy of forecast.io.

METAR (pilot weather report)

Retrieved 2018/04/26 19:54 UTC (39 minutes ago):

KBOS 261954Z 27017G23KT 10SM FEW050 19/05 A2962 RMK AO2 SLP031 T01940050

TAF (pilot weather forecast)

Retrieved 2018/04/26 18:35 UTC (2 hours ago):

TAF KBOS 261725Z 2618/2724 26011G23KT P6SM BKN040 FM271100 23004KT P6SM BKN200 FM271600 12008KT P6SM BKN130 FM271900 12008KT P6SM -RA OVC060 FM272100 13006KT 5SM -RA BR OVC020